createdAt,value
2022-09-16T00:00:31.412Z,13.24
2022-09-16T00:01:31.301Z,13.18
2022-09-16T00:02:31.198Z,13.20
2022-09-16T00:03:31.234Z,13.18
2022-09-16T00:04:31.160Z,13.15
2022-09-16T00:05:31.229Z,13.11
2022-09-16T00:06:31.166Z,13.07
2022-09-16T00:07:31.139Z,13.14
2022-09-16T00:08:31.130Z,13.04
2022-09-16T00:09:31.021Z,13.00
2022-09-16T00:10:31.072Z,12.84
2022-09-16T00:11:31.112Z,12.60
2022-09-16T00:12:31.479Z,12.42
2022-09-16T00:13:31.095Z,12.38
2022-09-16T00:14:31.111Z,12.45
2022-09-16T00:15:31.068Z,12.48
2022-09-16T00:16:31.123Z,12.39
2022-09-16T00:17:31.097Z,12.54
2022-09-16T00:18:31.044Z,12.54
2022-09-16T00:19:31.070Z,12.48
2022-09-16T00:20:32.091Z,12.45
2022-09-16T00:21:31.046Z,12.42
2022-09-16T00:22:30.947Z,12.38
2022-09-16T00:23:31.008Z,12.37
2022-09-16T00:24:30.948Z,12.33
2022-09-16T00:25:31.021Z,12.41
2022-09-16T00:26:30.934Z,12.31
2022-09-16T00:27:30.936Z,12.39
2022-09-16T00:28:30.979Z,12.21
2022-09-16T00:29:30.940Z,12.29
2022-09-16T00:30:30.916Z,12.27
2022-09-16T00:31:30.991Z,12.37
2022-09-16T00:32:30.977Z,12.37
2022-09-16T00:33:31.008Z,12.39
2022-09-16T00:34:30.933Z,12.39
2022-09-16T00:35:30.940Z,12.21
2022-09-16T00:36:31.005Z,12.37
2022-09-16T00:37:30.909Z,12.38
2022-09-16T00:38:30.944Z,12.38
2022-09-16T00:39:30.962Z,12.33
2022-09-16T00:40:30.956Z,12.31
2022-09-16T00:41:30.816Z,12.31
2022-09-16T00:42:30.810Z,12.41
2022-09-16T00:43:30.777Z,12.51
2022-09-16T00:44:30.820Z,12.41
2022-09-16T00:45:30.815Z,12.33
2022-09-16T00:46:30.833Z,12.46
2022-09-16T00:47:30.773Z,12.41
2022-09-16T00:48:30.797Z,12.44
2022-09-16T00:49:30.771Z,12.37
2022-09-16T00:50:31.898Z,12.34
2022-09-16T00:51:30.777Z,12.39
2022-09-16T00:52:30.815Z,12.24
2022-09-16T00:53:30.706Z,12.30
2022-09-16T00:54:30.790Z,12.27
2022-09-16T00:55:30.807Z,12.30
2022-09-16T00:56:30.794Z,12.23
2022-09-16T00:57:30.775Z,12.33
2022-09-16T00:58:30.754Z,12.41
2022-09-16T00:59:30.803Z,12.44
2022-09-16T01:00:30.765Z,12.42
2022-09-16T01:01:30.818Z,12.34
2022-09-16T01:02:30.747Z,12.39
2022-09-16T01:03:30.688Z,12.44
2022-09-16T01:04:30.742Z,12.39
2022-09-16T01:05:30.659Z,12.20
2022-09-16T01:06:30.677Z,12.12
2022-09-16T01:07:30.641Z,12.12
2022-09-16T01:08:30.637Z,12.13
2022-09-16T01:09:30.710Z,12.08
2022-09-16T01:10:30.812Z,12.06
2022-09-16T01:11:30.702Z,12.11
2022-09-16T01:12:30.754Z,12.13
2022-09-16T01:13:30.651Z,12.11
2022-09-16T01:14:30.581Z,12.15
2022-09-16T01:15:30.639Z,12.11
2022-09-16T01:16:30.665Z,12.30
2022-09-16T01:17:30.843Z,12.21
2022-09-16T01:18:30.662Z,12.42
2022-09-16T01:19:30.617Z,12.39
2022-09-16T01:20:30.616Z,12.31
2022-09-16T01:21:30.603Z,12.46
2022-09-16T01:22:30.560Z,12.33
2022-09-16T01:23:30.485Z,12.38
2022-09-16T01:24:30.468Z,12.38
2022-09-16T01:25:30.517Z,12.51
2022-09-16T01:26:30.487Z,12.51
2022-09-16T01:27:30.512Z,12.46
2022-09-16T01:28:30.541Z,12.54
2022-09-16T01:29:30.497Z,12.52
2022-09-16T01:30:30.459Z,12.48
2022-09-16T01:31:30.499Z,12.51
2022-09-16T01:32:30.538Z,12.64
2022-09-16T01:33:30.614Z,12.64
2022-09-16T01:34:30.538Z,12.60
2022-09-16T01:35:30.495Z,12.64
2022-09-16T01:36:30.487Z,12.67
2022-09-16T01:37:30.474Z,12.64
2022-09-16T01:38:30.515Z,12.69
2022-09-16T01:39:30.536Z,12.67
2022-09-16T01:40:30.498Z,12.66
2022-09-16T01:41:30.456Z,12.69
2022-09-16T01:42:30.452Z,12.69
2022-09-16T01:43:30.447Z,12.62
2022-09-16T01:44:31.032Z,12.59
2022-09-16T01:45:30.447Z,12.59
2022-09-16T01:46:30.412Z,12.51
2022-09-16T01:47:30.335Z,12.57
2022-09-16T01:48:30.332Z,12.64
2022-09-16T01:49:30.331Z,12.62
2022-09-16T01:50:30.351Z,12.48
2022-09-16T01:51:30.312Z,12.54
2022-09-16T01:52:30.312Z,12.42
2022-09-16T01:53:30.324Z,12.44
2022-09-16T01:54:30.286Z,12.41
2022-09-16T01:55:30.481Z,12.39
2022-09-16T01:56:30.333Z,12.42
2022-09-16T01:57:30.346Z,12.30
2022-09-16T01:58:30.319Z,12.41
2022-09-16T01:59:30.302Z,12.56
2022-09-16T02:00:30.325Z,12.39
2022-09-16T02:01:30.414Z,12.42
2022-09-16T02:02:30.407Z,12.39
2022-09-16T02:03:30.268Z,12.31
2022-09-16T02:04:30.305Z,12.33
2022-09-16T02:05:30.291Z,12.41
2022-09-16T02:06:30.316Z,12.30
2022-09-16T02:07:30.160Z,12.38
2022-09-16T02:08:30.155Z,12.27
2022-09-16T02:09:30.245Z,12.34
2022-09-16T02:10:30.169Z,12.24
2022-09-16T02:11:30.162Z,12.20
2022-09-16T02:12:30.188Z,12.33
2022-09-16T02:13:30.145Z,12.20
2022-09-16T02:14:30.213Z,12.13
2022-09-16T02:15:30.234Z,12.15
2022-09-16T02:16:30.207Z,12.11
2022-09-16T02:17:30.571Z,12.09
2022-09-16T02:18:30.178Z,11.90
2022-09-16T02:19:30.215Z,11.89
2022-09-16T02:20:30.164Z,11.77
2022-09-16T02:21:30.140Z,11.75
2022-09-16T02:22:30.201Z,11.83
2022-09-16T02:23:31.072Z,11.77
2022-09-16T02:24:30.114Z,11.80
2022-09-16T02:25:30.118Z,11.72
2022-09-16T02:26:30.117Z,11.67
2022-09-16T02:27:30.134Z,11.52
2022-09-16T02:28:30.054Z,11.53
2022-09-16T02:29:30.040Z,11.59
2022-09-16T02:30:30.066Z,11.43
2022-09-16T02:31:30.207Z,11.38
2022-09-16T02:32:30.129Z,11.39
2022-09-16T02:33:30.099Z,11.38
2022-09-16T02:34:30.114Z,11.52
2022-09-16T02:35:30.069Z,11.53
2022-09-16T02:36:30.100Z,11.54
2022-09-16T02:37:30.062Z,11.54
2022-09-16T02:38:31.062Z,11.49
2022-09-16T02:39:30.025Z,11.57
2022-09-16T02:40:30.272Z,11.52
2022-09-16T02:41:30.019Z,11.47
2022-09-16T02:42:29.997Z,11.49
2022-09-16T02:43:30.046Z,11.44
2022-09-16T02:44:29.964Z,11.38
2022-09-16T02:45:29.922Z,11.50
2022-09-16T02:46:30.006Z,11.43
2022-09-16T02:47:29.955Z,11.41
2022-09-16T02:48:29.963Z,11.39
2022-09-16T02:49:30.018Z,11.43
2022-09-16T02:50:29.956Z,11.44
2022-09-16T02:51:29.961Z,11.46
2022-09-16T02:52:31.605Z,11.44
2022-09-16T02:53:29.840Z,11.49
2022-09-16T02:54:29.934Z,11.49
2022-09-16T02:55:29.993Z,11.43
2022-09-16T02:56:29.917Z,11.47
2022-09-16T02:57:29.963Z,11.47
2022-09-16T02:58:29.880Z,11.39
2022-09-16T02:59:29.965Z,11.50
2022-09-16T03:00:29.913Z,11.56
2022-09-16T03:01:29.882Z,11.59
2022-09-16T03:02:29.795Z,11.54
2022-09-16T03:03:29.841Z,11.53
2022-09-16T03:04:29.874Z,11.52
2022-09-16T03:05:29.834Z,11.53
2022-09-16T03:06:29.877Z,11.49
2022-09-16T03:07:29.810Z,11.41
2022-09-16T03:08:29.801Z,11.46
2022-09-16T03:09:29.856Z,11.44
2022-09-16T03:10:29.827Z,11.53
2022-09-16T03:11:30.583Z,11.39
2022-09-16T03:12:30.776Z,11.44
2022-09-16T03:13:30.538Z,11.43
2022-09-16T03:14:30.528Z,11.47
2022-09-16T03:15:29.781Z,11.41
2022-09-16T03:16:29.826Z,11.46
2022-09-16T03:17:29.719Z,11.36
2022-09-16T03:18:29.687Z,11.31
2022-09-16T03:19:29.773Z,11.36
2022-09-16T03:20:29.762Z,11.17
2022-09-16T03:21:29.750Z,11.09
2022-09-16T03:22:29.960Z,11.13
2022-09-16T03:23:29.750Z,11.10
2022-09-16T03:24:29.776Z,10.98
2022-09-16T03:25:29.717Z,10.96
2022-09-16T03:26:29.811Z,11.02
2022-09-16T03:27:29.686Z,11.03
2022-09-16T03:28:29.727Z,10.98
2022-09-16T03:29:30.536Z,11.01
2022-09-16T03:30:29.650Z,10.99
2022-09-16T03:31:29.687Z,11.07
2022-09-16T03:32:29.690Z,11.03
2022-09-16T03:33:29.708Z,11.01
2022-09-16T03:34:29.566Z,10.99
2022-09-16T03:35:29.560Z,11.06
2022-09-16T03:36:29.570Z,11.11
2022-09-16T03:37:29.647Z,11.03
2022-09-16T03:38:29.545Z,11.10
2022-09-16T03:39:29.589Z,11.16
2022-09-16T03:40:29.560Z,11.10
2022-09-16T03:41:29.530Z,11.09
2022-09-16T03:42:29.567Z,11.25
2022-09-16T03:43:29.595Z,11.25
2022-09-16T03:44:29.595Z,11.24
2022-09-16T03:45:29.597Z,11.25
2022-09-16T03:46:29.654Z,11.28
2022-09-16T03:47:29.597Z,11.28
2022-09-16T03:48:29.540Z,11.24
2022-09-16T03:49:29.536Z,11.36
2022-09-16T03:50:29.594Z,11.35
2022-09-16T03:51:29.510Z,11.35
2022-09-16T03:52:29.531Z,11.34
2022-09-16T03:53:30.431Z,11.34
2022-09-16T03:54:29.494Z,11.41
2022-09-16T03:55:29.534Z,11.34
2022-09-16T03:56:29.374Z,11.34
2022-09-16T03:57:29.403Z,11.44
2022-09-16T03:58:29.495Z,11.38
2022-09-16T03:59:29.394Z,11.44
2022-09-16T04:00:29.512Z,11.36
2022-09-16T04:01:29.508Z,11.43
2022-09-16T04:02:29.466Z,11.44
2022-09-16T04:03:33.145Z,11.43
2022-09-16T04:04:30.509Z,11.49
2022-09-16T04:05:29.405Z,11.41
2022-09-16T04:06:29.465Z,11.36
2022-09-16T04:07:29.415Z,11.34
2022-09-16T04:08:29.444Z,11.43
2022-09-16T04:09:29.393Z,11.36
2022-09-16T04:10:29.341Z,11.36
2022-09-16T04:11:29.347Z,11.39
2022-09-16T04:12:29.322Z,11.31
2022-09-16T04:13:29.384Z,11.32
2022-09-16T04:14:29.289Z,11.38
2022-09-16T04:15:29.281Z,11.27
2022-09-16T04:16:29.286Z,11.25
2022-09-16T04:17:29.329Z,11.28
2022-09-16T04:18:29.229Z,11.31
2022-09-16T04:19:29.327Z,11.31
2022-09-16T04:20:29.301Z,11.20
2022-09-16T04:21:29.360Z,11.14
2022-09-16T04:22:29.278Z,11.13
2022-09-16T04:23:29.736Z,11.10
2022-09-16T04:24:29.288Z,11.06
2022-09-16T04:25:29.319Z,11.06
2022-09-16T04:26:29.274Z,11.09
2022-09-16T04:27:29.348Z,11.03
2022-09-16T04:28:29.347Z,11.01
2022-09-16T04:29:29.193Z,11.02
2022-09-16T04:30:29.160Z,11.06
2022-09-16T04:31:29.175Z,11.02
2022-09-16T04:32:29.284Z,11.10
2022-09-16T04:33:29.155Z,10.99
2022-09-16T04:34:29.194Z,10.98
2022-09-16T04:35:29.136Z,10.99
2022-09-16T04:36:29.253Z,11.01
2022-09-16T04:37:29.225Z,10.99
2022-09-16T04:38:29.217Z,11.02
2022-09-16T04:39:29.191Z,11.02
2022-09-16T04:40:29.272Z,10.99
2022-09-16T04:41:29.158Z,11.06
2022-09-16T04:42:29.123Z,11.06
2022-09-16T04:43:29.127Z,10.91
2022-09-16T04:44:29.197Z,10.86
2022-09-16T04:45:29.158Z,10.81
2022-09-16T04:46:29.161Z,10.91
2022-09-16T04:47:29.133Z,10.86
2022-09-16T04:48:29.157Z,10.77
2022-09-16T04:49:29.091Z,10.78
2022-09-16T04:50:29.022Z,10.83
2022-09-16T04:51:28.996Z,10.95
2022-09-16T04:52:29.074Z,10.88
2022-09-16T04:53:28.998Z,10.88
2022-09-16T04:54:28.992Z,10.95
2022-09-16T04:55:28.993Z,10.91
2022-09-16T04:56:29.011Z,10.91
2022-09-16T04:57:28.962Z,11.03
2022-09-16T04:58:28.957Z,10.96
2022-09-16T04:59:29.007Z,11.03
2022-09-16T05:00:29.004Z,11.03
2022-09-16T05:01:29.089Z,10.99
2022-09-16T05:02:29.003Z,11.02
2022-09-16T05:03:29.046Z,11.01
2022-09-16T05:04:28.948Z,11.07
2022-09-16T05:05:29.016Z,11.03
2022-09-16T05:06:28.974Z,11.06
2022-09-16T05:07:29.006Z,11.03
2022-09-16T05:08:29.013Z,11.07
2022-09-16T05:09:29.010Z,11.13
2022-09-16T05:10:28.851Z,11.14
2022-09-16T05:11:28.852Z,11.14
2022-09-16T05:12:28.886Z,11.11
2022-09-16T05:13:28.998Z,11.13
2022-09-16T05:14:28.907Z,11.16
2022-09-16T05:15:28.843Z,11.11
2022-09-16T05:16:28.916Z,11.19
2022-09-16T05:17:49.912Z,11.14
2022-09-16T05:18:30.893Z,11.11
2022-09-16T05:19:28.868Z,11.19
2022-09-16T05:20:28.913Z,11.16
2022-09-16T05:21:28.884Z,11.13
2022-09-16T05:22:28.858Z,11.14
2022-09-16T05:23:29.156Z,11.11
2022-09-16T05:24:28.889Z,11.06
2022-09-16T05:25:28.809Z,11.09
2022-09-16T05:26:28.879Z,11.07
2022-09-16T05:27:28.825Z,11.07
2022-09-16T05:28:28.796Z,11.16
2022-09-16T05:29:28.796Z,11.14
2022-09-16T05:30:28.891Z,11.19
2022-09-16T05:31:28.679Z,11.28
2022-09-16T05:32:28.700Z,11.14
2022-09-16T05:33:28.692Z,11.31
2022-09-16T05:34:28.714Z,11.29
2022-09-16T05:35:28.703Z,11.32
2022-09-16T05:36:28.672Z,11.43
2022-09-16T05:37:28.676Z,11.29
2022-09-16T05:38:28.677Z,11.25
2022-09-16T05:39:28.779Z,11.25
2022-09-16T05:40:28.691Z,11.25
2022-09-16T05:41:28.731Z,11.28
2022-09-16T05:42:28.739Z,11.36
2022-09-16T05:43:28.673Z,11.34
2022-09-16T05:44:28.768Z,11.43
2022-09-16T05:45:32.227Z,11.54
2022-09-16T05:46:29.808Z,11.61
2022-09-16T05:47:28.676Z,11.53
2022-09-16T05:48:28.709Z,11.54
2022-09-16T05:49:28.667Z,11.70
2022-09-16T05:50:28.667Z,11.64
2022-09-16T05:51:28.669Z,11.70
2022-09-16T05:52:28.555Z,11.75
2022-09-16T05:53:28.541Z,11.85
2022-09-16T05:54:28.522Z,11.71
2022-09-16T05:55:28.666Z,11.75
2022-09-16T05:56:28.575Z,11.80
2022-09-16T05:57:28.504Z,11.78
2022-09-16T05:58:28.529Z,11.78
2022-09-16T05:59:28.612Z,11.89
2022-09-16T06:00:28.584Z,11.82
2022-09-16T06:01:28.616Z,11.89
2022-09-16T06:02:28.715Z,11.87
2022-09-16T06:03:28.545Z,11.75
2022-09-16T06:04:28.554Z,11.90
2022-09-16T06:05:28.534Z,11.82
2022-09-16T06:06:28.531Z,11.83
2022-09-16T06:07:28.560Z,11.85
2022-09-16T06:08:28.503Z,11.85
2022-09-16T06:09:28.504Z,11.75
2022-09-16T06:10:28.445Z,11.83
2022-09-16T06:11:28.408Z,11.87
2022-09-16T06:12:28.422Z,11.94
2022-09-16T06:13:28.421Z,11.80
2022-09-16T06:14:28.407Z,11.74
2022-09-16T06:15:28.386Z,11.75
2022-09-16T06:16:28.375Z,11.87
2022-09-16T06:17:28.349Z,11.82
2022-09-16T06:18:28.464Z,11.90
2022-09-16T06:19:28.433Z,11.93
2022-09-16T06:20:28.504Z,11.74
2022-09-16T06:21:28.425Z,11.74
2022-09-16T06:22:28.481Z,11.75
2022-09-16T06:23:28.452Z,11.75
2022-09-16T06:24:28.411Z,11.74
2022-09-16T06:25:28.396Z,11.78
2022-09-16T06:26:28.381Z,11.72
2022-09-16T06:27:28.405Z,11.83
2022-09-16T06:28:28.350Z,11.72
2022-09-16T06:29:28.511Z,11.82
2022-09-16T06:30:31.093Z,11.78
2022-09-16T06:31:29.275Z,11.85
2022-09-16T06:32:29.328Z,11.97
2022-09-16T06:33:28.272Z,11.86
2022-09-16T06:34:28.330Z,11.96
2022-09-16T06:35:28.208Z,11.87
2022-09-16T06:36:28.322Z,11.96
2022-09-16T06:37:28.320Z,12.08
2022-09-16T06:38:28.345Z,12.09
2022-09-16T06:39:28.393Z,12.13
2022-09-16T06:40:28.493Z,12.27
2022-09-16T06:41:28.352Z,12.16
2022-09-16T06:42:28.256Z,12.27
2022-09-16T06:43:28.345Z,12.26
2022-09-16T06:44:28.262Z,12.21
2022-09-16T06:45:28.439Z,12.34
2022-09-16T06:46:28.228Z,12.39
2022-09-16T06:47:28.155Z,12.29
2022-09-16T06:48:28.249Z,12.37
2022-09-16T06:49:28.130Z,12.46
2022-09-16T06:50:28.279Z,12.54
2022-09-16T06:51:28.207Z,12.45
2022-09-16T06:52:28.123Z,12.62
2022-09-16T06:53:28.128Z,12.63
2022-09-16T06:54:28.198Z,12.67
2022-09-16T06:55:28.180Z,12.82
2022-09-16T06:56:28.222Z,12.70
2022-09-16T06:57:28.178Z,12.71
2022-09-16T06:58:28.161Z,12.78
2022-09-16T06:59:28.155Z,12.82
2022-09-16T07:00:28.169Z,12.78
2022-09-16T07:01:28.327Z,12.89
2022-09-16T07:02:28.195Z,12.93
2022-09-16T07:03:28.128Z,13.00
2022-09-16T07:04:28.188Z,13.04
2022-09-16T07:05:28.118Z,12.89
2022-09-16T07:06:45.243Z,12.99
2022-09-16T07:07:30.073Z,13.02
2022-09-16T07:08:28.029Z,13.03
2022-09-16T07:09:28.031Z,13.06
2022-09-16T07:10:27.989Z,13.00
2022-09-16T07:11:28.070Z,13.11
2022-09-16T07:12:28.069Z,13.06
2022-09-16T07:13:27.970Z,13.04
2022-09-16T07:14:27.986Z,13.22
2022-09-16T07:15:27.930Z,13.24
2022-09-16T07:16:28.074Z,13.25
2022-09-16T07:17:28.028Z,13.27
2022-09-16T07:18:28.075Z,13.20
2022-09-16T07:19:28.364Z,13.25
2022-09-16T07:20:28.599Z,13.43
2022-09-16T07:21:27.998Z,13.38
2022-09-16T07:22:28.115Z,13.49
2022-09-16T07:23:28.045Z,13.56
2022-09-16T07:24:27.987Z,13.52
2022-09-16T07:25:30.489Z,13.55
2022-09-16T07:26:27.969Z,13.56
2022-09-16T07:27:27.992Z,13.46
2022-09-16T07:28:27.994Z,13.55
2022-09-16T07:29:29.141Z,13.70
2022-09-16T07:30:27.999Z,13.77
2022-09-16T07:31:27.902Z,13.89
2022-09-16T07:32:27.859Z,13.87
2022-09-16T07:33:27.905Z,13.98
2022-09-16T07:34:27.845Z,13.95
2022-09-16T07:35:27.920Z,13.96
2022-09-16T07:36:27.800Z,14.07
2022-09-16T07:37:27.814Z,13.94
2022-09-16T07:38:27.950Z,13.92
2022-09-16T07:39:27.928Z,13.96
2022-09-16T07:40:29.861Z,14.02
2022-09-16T07:41:28.863Z,14.02
2022-09-16T07:42:27.883Z,14.04
2022-09-16T07:43:27.894Z,13.98
2022-09-16T07:44:27.844Z,13.98
2022-09-16T07:45:27.910Z,14.07
2022-09-16T07:46:27.912Z,14.14
2022-09-16T07:47:27.830Z,14.19
2022-09-16T07:48:32.437Z,14.09
2022-09-16T07:49:29.801Z,14.24
2022-09-16T07:50:27.724Z,14.24
2022-09-16T07:51:27.778Z,14.20
2022-09-16T07:52:27.702Z,14.20
2022-09-16T07:53:29.543Z,14.21
2022-09-16T07:54:28.770Z,14.20
2022-09-16T07:55:27.699Z,14.12
2022-09-16T07:56:27.699Z,14.04
2022-09-16T07:57:27.700Z,14.32
2022-09-16T07:58:27.681Z,14.32
2022-09-16T07:59:27.664Z,14.43
2022-09-16T08:00:27.679Z,14.43
2022-09-16T08:01:27.728Z,14.38
2022-09-16T08:02:27.907Z,14.53
2022-09-16T08:03:27.681Z,14.52
2022-09-16T08:04:27.719Z,14.53
2022-09-16T08:05:27.683Z,14.65
2022-09-16T08:06:28.182Z,14.61
2022-09-16T08:07:30.258Z,14.78
2022-09-16T08:08:27.633Z,14.81
2022-09-16T08:09:38.122Z,14.87
2022-09-16T08:10:32.436Z,14.81
2022-09-16T08:11:28.734Z,14.91
2022-09-16T08:12:27.614Z,14.93
2022-09-16T08:13:27.773Z,14.91
2022-09-16T08:14:27.609Z,15.03
2022-09-16T08:15:27.698Z,15.09
2022-09-16T08:16:27.693Z,15.02
2022-09-16T08:17:30.677Z,14.90
2022-09-16T08:18:28.561Z,14.98
2022-09-16T08:19:27.496Z,14.87
2022-09-16T08:20:27.511Z,14.75
2022-09-16T08:21:27.515Z,14.72
2022-09-16T08:22:27.509Z,14.72
2022-09-16T08:23:27.484Z,14.67
2022-09-16T08:24:27.498Z,14.62
2022-09-16T08:25:27.476Z,14.61
2022-09-16T08:26:27.533Z,14.60
2022-09-16T08:27:27.440Z,14.68
2022-09-16T08:28:35.775Z,14.72
2022-09-16T08:29:28.834Z,14.81
2022-09-16T08:30:28.141Z,14.60
2022-09-16T08:31:27.467Z,14.50
2022-09-16T08:32:27.541Z,14.34
2022-09-16T08:33:27.505Z,14.42
2022-09-16T08:34:27.558Z,14.43
2022-09-16T08:35:27.560Z,14.47
2022-09-16T08:36:27.482Z,14.43
2022-09-16T08:37:27.470Z,14.32
2022-09-16T08:38:28.149Z,14.29
2022-09-16T08:39:27.438Z,14.25
2022-09-16T08:40:27.498Z,14.28
2022-09-16T08:41:27.579Z,14.31
2022-09-16T08:42:27.421Z,14.31
2022-09-16T08:43:27.338Z,14.31
2022-09-16T08:44:27.333Z,14.27
2022-09-16T08:45:27.365Z,14.24
2022-09-16T08:46:27.476Z,14.17
2022-09-16T08:47:27.345Z,14.13
2022-09-16T08:48:28.725Z,14.13
2022-09-16T08:49:27.311Z,14.10
2022-09-16T08:50:27.330Z,14.10
2022-09-16T08:51:27.289Z,14.02
2022-09-16T08:52:27.360Z,13.80
2022-09-16T08:53:27.281Z,13.74
2022-09-16T08:54:27.368Z,13.70
2022-09-16T08:55:27.397Z,13.58
2022-09-16T08:56:27.449Z,13.65
2022-09-16T08:57:27.400Z,13.79
2022-09-16T08:58:27.393Z,13.73
2022-09-16T08:59:27.312Z,13.73
2022-09-16T09:00:27.301Z,13.73
2022-09-16T09:01:27.405Z,13.77
2022-09-16T09:02:27.711Z,13.73
2022-09-16T09:03:27.297Z,13.62
2022-09-16T09:04:27.237Z,13.81
2022-09-16T09:05:27.255Z,13.83
2022-09-16T09:06:27.183Z,13.74
2022-09-16T09:07:27.197Z,13.77
2022-09-16T09:08:27.219Z,13.81
2022-09-16T09:09:27.308Z,13.91
2022-09-16T09:10:27.233Z,13.99
2022-09-16T09:11:27.236Z,14.07
2022-09-16T09:12:27.816Z,14.09
2022-09-16T09:13:28.036Z,14.16
2022-09-16T09:14:27.439Z,14.12
2022-09-16T09:15:28.387Z,14.29
2022-09-16T09:16:28.342Z,14.29
2022-09-16T09:17:27.178Z,14.39
2022-09-16T09:18:27.281Z,14.43
2022-09-16T09:19:27.171Z,14.38
2022-09-16T09:20:27.190Z,14.35
2022-09-16T09:21:27.465Z,14.39
2022-09-16T09:22:28.158Z,14.39
2022-09-16T09:23:27.199Z,14.35
2022-09-16T09:24:27.152Z,14.38
2022-09-16T09:25:27.172Z,14.47
2022-09-16T09:26:27.041Z,14.35
2022-09-16T09:27:27.142Z,14.42
2022-09-16T09:28:27.109Z,14.42
2022-09-16T09:29:27.103Z,14.42
2022-09-16T09:30:27.109Z,14.38
2022-09-16T09:31:27.078Z,14.28
2022-09-16T09:32:27.041Z,14.12
2022-09-16T09:33:45.424Z,14.31
2022-09-16T09:34:29.164Z,14.14
2022-09-16T09:35:27.002Z,14.24
2022-09-16T09:36:27.073Z,14.19
2022-09-16T09:37:27.124Z,14.17
2022-09-16T09:38:27.044Z,14.25
2022-09-16T09:39:27.086Z,14.37
2022-09-16T09:40:27.117Z,14.42
2022-09-16T09:41:27.062Z,14.34
2022-09-16T09:42:26.990Z,14.44
2022-09-16T09:43:27.049Z,14.24
2022-09-16T09:44:26.998Z,14.19
2022-09-16T09:45:27.032Z,14.19
2022-09-16T09:46:27.136Z,14.31
2022-09-16T09:47:26.977Z,14.28
2022-09-16T09:48:26.927Z,14.35
2022-09-16T09:49:26.889Z,14.56
2022-09-16T09:50:26.978Z,14.62
2022-09-16T09:51:26.938Z,14.69
2022-09-16T09:52:26.933Z,14.83
2022-09-16T09:53:26.832Z,14.94
2022-09-16T09:54:26.984Z,14.90
2022-09-16T09:55:26.915Z,15.03
2022-09-16T09:56:27.145Z,14.88
2022-09-16T11:21:58.233Z,16.16
2022-09-16T11:22:58.975Z,16.18
2022-09-16T11:23:59.014Z,16.25
2022-09-16T11:24:58.973Z,16.33
2022-09-16T11:25:58.935Z,16.50
2022-09-16T11:26:59.011Z,16.53
2022-09-16T11:27:59.897Z,16.42
2022-09-16T11:28:58.892Z,16.56
2022-09-16T11:29:58.859Z,16.50
2022-09-16T11:30:58.944Z,16.58
2022-09-16T11:31:58.840Z,16.68
2022-09-16T11:33:01.523Z,16.52
2022-09-16T11:33:59.808Z,16.52
2022-09-16T11:34:58.822Z,16.55
2022-09-16T11:35:59.787Z,16.58
2022-09-16T11:36:58.829Z,16.41
2022-09-16T11:37:58.989Z,16.55
2022-09-16T11:38:58.914Z,16.60
2022-09-16T11:39:58.922Z,16.55
2022-09-16T11:40:58.927Z,16.60
2022-09-16T11:41:58.862Z,16.62
2022-09-16T11:42:58.821Z,16.81
2022-09-16T11:43:58.851Z,17.07
2022-09-16T11:44:58.827Z,16.93
2022-09-16T11:45:58.806Z,16.77
2022-09-16T11:46:58.805Z,16.59
2022-09-16T11:47:58.870Z,16.49
2022-09-16T11:48:58.812Z,16.45
2022-09-16T11:49:58.719Z,16.26
2022-09-16T11:50:58.731Z,16.03
2022-09-16T11:51:58.779Z,15.88
2022-09-16T11:53:04.011Z,15.79
2022-09-16T11:54:01.564Z,15.82
2022-09-16T11:54:58.690Z,15.68
2022-09-16T11:55:58.758Z,15.66
2022-09-16T11:56:58.747Z,15.68
2022-09-16T11:57:58.732Z,15.89
2022-09-16T11:58:58.719Z,16.04
2022-09-16T11:59:59.661Z,16.12
2022-09-16T12:00:58.676Z,16.33
2022-09-16T12:01:58.786Z,16.50
2022-09-16T12:02:58.677Z,16.44
2022-09-16T12:03:58.826Z,16.42
2022-09-16T12:04:58.707Z,16.27
2022-09-16T12:05:58.652Z,16.22
2022-09-16T12:06:59.381Z,16.03
2022-09-16T12:07:58.929Z,16.00
2022-09-16T12:08:58.640Z,15.89
2022-09-16T12:09:58.634Z,15.86
2022-09-16T12:10:58.659Z,15.70
2022-09-16T12:11:58.550Z,15.93
2022-09-16T12:12:58.628Z,15.96
2022-09-16T12:14:05.380Z,16.09
2022-09-16T12:15:04.748Z,16.14
2022-09-16T12:16:00.588Z,16.34
2022-09-16T12:16:58.561Z,16.35
2022-09-16T12:17:58.570Z,16.58
2022-09-16T12:18:58.586Z,16.58
2022-09-16T12:19:58.571Z,16.90
2022-09-16T12:20:58.657Z,16.92
2022-09-16T12:21:58.574Z,17.14
2022-09-16T12:22:58.590Z,17.08
2022-09-16T12:23:59.323Z,17.18
2022-09-16T12:24:58.587Z,17.06
2022-09-16T12:25:58.652Z,17.06
2022-09-16T12:26:58.758Z,17.14
2022-09-16T12:27:58.492Z,17.22
2022-09-16T12:28:58.511Z,17.17
2022-09-16T12:29:58.436Z,17.17
2022-09-16T12:30:58.449Z,17.15
2022-09-16T12:31:58.609Z,17.26
2022-09-16T12:32:58.467Z,17.30
2022-09-16T12:33:58.477Z,17.17
2022-09-16T12:34:58.444Z,17.11
2022-09-16T12:35:58.399Z,17.04
2022-09-16T12:36:58.451Z,17.10
2022-09-16T12:37:58.465Z,17.15
2022-09-16T12:38:58.395Z,17.29
2022-09-16T12:39:58.519Z,17.03
2022-09-16T12:40:58.397Z,17.03
2022-09-16T12:41:58.489Z,16.80
2022-09-16T12:42:58.472Z,16.80
2022-09-16T12:44:06.365Z,16.85
2022-09-16T12:45:00.379Z,16.89
2022-09-16T12:45:58.442Z,16.88
2022-09-16T12:46:58.345Z,16.85
2022-09-16T12:47:58.258Z,16.73
2022-09-16T12:48:58.300Z,16.78
2022-09-16T12:49:58.245Z,16.90
2022-09-16T12:50:58.327Z,16.81
2022-09-16T12:51:58.239Z,16.85
2022-09-16T12:52:58.229Z,16.78
2022-09-16T12:53:58.248Z,16.68
2022-09-16T12:55:07.776Z,16.63
2022-09-16T12:56:00.234Z,16.41
2022-09-16T12:56:58.273Z,16.20
2022-09-16T12:57:58.358Z,16.03
2022-09-16T12:58:58.321Z,15.96
2022-09-16T12:59:58.277Z,16.04
2022-09-16T13:00:58.285Z,16.04
2022-09-16T13:02:00.031Z,16.23
2022-09-16T13:02:59.346Z,16.30
2022-09-16T13:03:58.385Z,16.44
2022-09-16T13:04:58.271Z,16.40
2022-09-16T13:05:58.225Z,16.30
2022-09-16T13:06:58.322Z,16.41
2022-09-16T13:07:58.164Z,16.37
2022-09-16T13:08:58.100Z,16.42
2022-09-16T13:09:58.133Z,16.26
2022-09-16T13:11:25.523Z,16.26
2022-09-16T13:13:00.155Z,16.03
2022-09-16T13:13:58.053Z,15.52
2022-09-16T13:14:58.206Z,15.31
2022-09-16T13:15:58.189Z,14.80
2022-09-16T13:16:58.241Z,14.56
2022-09-16T13:17:58.122Z,14.31
2022-09-16T13:18:58.148Z,14.27
2022-09-16T13:19:58.133Z,14.19
2022-09-16T13:20:58.171Z,14.24
2022-09-16T13:21:58.105Z,14.27
2022-09-16T13:22:58.136Z,14.34
2022-09-16T13:23:58.086Z,14.38
2022-09-16T13:24:58.102Z,14.39
2022-09-16T13:25:58.147Z,14.39
2022-09-16T13:26:58.095Z,14.29
2022-09-16T13:27:58.087Z,14.20
2022-09-16T13:28:58.187Z,14.12
2022-09-16T13:29:58.015Z,13.76
2022-09-16T13:30:57.954Z,13.46
2022-09-16T13:31:58.415Z,13.46
2022-09-16T13:32:57.930Z,13.36
2022-09-16T13:33:58.016Z,13.37
2022-09-16T13:34:57.952Z,13.38
2022-09-16T13:35:57.931Z,13.47
2022-09-16T13:36:58.059Z,13.52
2022-09-16T13:37:58.069Z,13.74
2022-09-16T13:38:58.279Z,14.02
2022-09-16T13:39:58.020Z,14.72
2022-09-16T13:40:57.974Z,14.68
2022-09-16T13:41:57.952Z,14.72
2022-09-16T13:42:58.013Z,15.11
2022-09-16T13:43:57.957Z,15.78
2022-09-16T13:44:57.997Z,15.67
2022-09-16T13:45:57.926Z,16.30
2022-09-16T13:46:57.923Z,17.35
2022-09-16T13:47:57.943Z,17.06
2022-09-16T13:48:57.933Z,17.85
2022-09-16T13:49:57.908Z,17.47
2022-09-16T13:50:57.830Z,16.73
2022-09-16T13:51:57.813Z,18.15
2022-09-16T13:52:57.785Z,18.42
2022-09-16T13:53:57.916Z,18.97
2022-09-16T13:55:12.856Z,18.72
2022-09-16T13:55:59.804Z,18.57
2022-09-16T13:56:57.869Z,18.91
2022-09-16T13:57:57.829Z,19.48
2022-09-16T13:58:57.989Z,19.58
2022-09-16T13:59:57.838Z,19.43
2022-09-16T14:00:57.929Z,19.61
2022-09-16T14:02:00.225Z,19.63
2022-09-16T14:02:58.872Z,19.63
2022-09-16T14:03:57.891Z,20.00
2022-09-16T14:04:57.829Z,19.47
2022-09-16T14:05:57.778Z,19.48
2022-09-16T14:06:57.859Z,19.15
2022-09-16T14:07:57.791Z,19.18
2022-09-16T14:08:57.865Z,19.35
2022-09-16T14:09:57.820Z,18.91
2022-09-16T14:10:57.803Z,19.10
2022-09-16T14:11:57.799Z,19.20
2022-09-16T14:12:57.716Z,18.61
2022-09-16T14:14:05.599Z,18.17
2022-09-16T14:15:00.370Z,17.85
2022-09-16T14:15:57.804Z,18.28
2022-09-16T14:16:57.793Z,18.49
2022-09-16T14:17:57.785Z,19.15